^^
Station Historical Data
 
Daily Summary for August 31, 2016 Units:  English    Metric   Both
« Previous Day
Next Day »
Daily Weekly Monthly Yearly Custom
  Current: High: Low: Average:
Temperature: 62.1 °F 77.4 °F 54.8 °F 65.5 °F
Dew Point: 55.2 °F 58.0 °F 50.0 °F 54.4 °F
Humidity: 78% 93% 40% 70%
Wind Speed: 0.0mph 11.5mph 0.0mph 2.5mph
Wind Gust: 0.0mph 11.5mph - -
WindCalm - - ESE
Pressure: 29.93 in 30.00 in 29.77 in -
Precipitation: 0.00 in      
Historical Graphs
 
 
Tabular Data for August 31, 2016
Time Temperature Dew Point Pressure Wind Wind Speed Wind Gust Humidity Rainfall Rate (Hourly) solar Conditions
00:03 58.6 °F 53.5 °F 29.94 in Calm     83% 0.00 in WeatherDisplay:10.37 W/m2 RA
00:08 58.4 °F 53.6 °F 29.94 in Calm     84% 0.00 in WeatherDisplay:10.37 W/m2 RA
00:13 58.4 °F 53.6 °F 29.94 in Calm     84% 0.00 in WeatherDisplay:10.37 W/m2 CLR
00:18 58.1 °F 53.3 °F 29.94 in Calm     84% 0.00 in WeatherDisplay:10.37 W/m2 CLR
00:23 58.0 °F 53.2 °F 29.94 in Calm     84% 0.00 in WeatherDisplay:10.37 W/m2 CLR
00:28 57.8 °F 53.0 °F 29.93 in Calm     84% 0.00 in WeatherDisplay:10.37 W/m2 CLR
00:33 57.6 °F 52.8 °F 29.93 in Calm     84% 0.00 in WeatherDisplay:10.37 W/m2 CLR
00:38 57.3 °F 52.5 °F 29.93 in Calm     84% 0.00 in WeatherDisplay:10.37 W/m2 CLR
00:43 57.3 °F 52.8 °F 29.94 in Calm     85% 0.00 in WeatherDisplay:10.37 W/m2 CLR
00:48 57.0 °F 52.5 °F 29.94 in Calm     85% 0.00 in WeatherDisplay:10.37 W/m2 CLR
00:53 56.7 °F 52.2 °F 29.95 in Calm     85% 0.00 in WeatherDisplay:10.37 W/m2 CLR
00:58 56.6 °F 52.1 °F 29.95 in Calm     85% 0.00 in WeatherDisplay:10.37 W/m2 CLR
01:03 56.3 °F 51.8 °F 29.95 in Calm     85% 0.00 in WeatherDisplay:10.37 W/m2 CLR
01:08 56.2 °F 51.7 °F 29.94 in Calm     85% 0.00 in WeatherDisplay:10.37 W/m2 CLR
01:13 56.0 °F 51.6 °F 29.94 in Calm     85% 0.00 in WeatherDisplay:10.37 W/m2 CLR
01:18 56.0 °F 51.9 °F 29.94 in Calm     86% 0.00 in WeatherDisplay:10.37 W/m2 CLR
01:23 56.0 °F 52.2 °F 29.94 in Calm     87% 0.00 in WeatherDisplay:10.37 W/m2 CLR
01:28 56.2 °F 52.4 °F 29.93 in Calm     87% 0.00 in WeatherDisplay:10.37 W/m2 CLR
01:33 56.2 °F 52.4 °F 29.93 in Calm     87% 0.00 in WeatherDisplay:10.37 W/m2 CLR
01:38 56.2 °F 52.4 °F 29.93 in Calm     87% 0.00 in WeatherDisplay:10.37 W/m2 CLR
01:43 56.2 °F 52.7 °F 29.93 in Calm     88% 0.00 in WeatherDisplay:10.37 W/m2 CLR
01:48 56.0 °F 52.5 °F 29.93 in Calm     88% 0.00 in WeatherDisplay:10.37 W/m2 CLR
01:53 56.0 °F 52.5 °F 29.92 in Calm     88% 0.00 in WeatherDisplay:10.37 W/m2 CLR
01:58 55.9 °F 52.4 °F 29.92 in Calm     88% 0.00 in WeatherDisplay:10.37 W/m2 CLR
02:03 55.7 °F 52.2 °F 29.92 in Calm     88% 0.00 in WeatherDisplay:10.37 W/m2 CLR
02:08 55.6 °F 52.1 °F 29.92 in Calm     88% 0.00 in WeatherDisplay:10.37 W/m2 CLR
02:13 55.4 °F 52.2 °F 29.94 in Calm     89% 0.00 in WeatherDisplay:10.37 W/m2 CLR
02:19 55.4 °F 52.2 °F 29.94 in Calm     89% 0.00 in WeatherDisplay:10.37 W/m2 CLR
02:24 55.3 °F 52.1 °F 29.94 in Calm     89% 0.00 in WeatherDisplay:10.37 W/m2 CLR
02:29 55.1 °F 51.9 °F 29.94 in Calm     89% 0.00 in WeatherDisplay:10.37 W/m2 CLR
02:34 55.1 °F 51.9 °F 29.94 in Calm     89% 0.00 in WeatherDisplay:10.37 W/m2 CLR
02:39 55.3 °F 52.1 °F 29.94 in Calm     89% 0.00 in WeatherDisplay:10.37 W/m2 CLR
02:44 55.1 °F 51.9 °F 29.94 in Calm     89% 0.00 in WeatherDisplay:10.37 W/m2 CLR
02:49 55.0 °F 51.8 °F 29.94 in Calm     89% 0.00 in WeatherDisplay:10.37 W/m2 CLR
02:54 54.8 °F 51.6 °F 29.94 in Calm     89% 0.00 in WeatherDisplay:10.37 W/m2 CLR
02:59 54.8 °F 51.6 °F 29.94 in Calm     89% 0.00 in WeatherDisplay:10.37 W/m2 CLR
03:04 55.0 °F 52.1 °F 29.95 in Calm     90% 0.00 in WeatherDisplay:10.37 W/m2 CLR
03:09 55.1 °F 52.2 °F 29.95 in Calm     90% 0.00 in WeatherDisplay:10.37 W/m2 CLR
03:14 55.3 °F 52.4 °F 29.95 in Calm     90% 0.00 in WeatherDisplay:10.37 W/m2 CLR
03:19 55.3 °F 52.4 °F 29.95 in Calm     90% 0.00 in WeatherDisplay:10.37 W/m2 CLR
03:24 55.4 °F 52.5 °F 29.95 in Calm     90% 0.00 in WeatherDisplay:10.37 W/m2 CLR
03:29 55.7 °F 52.8 °F 29.94 in Calm     90% 0.00 in WeatherDisplay:10.37 W/m2 CLR
03:34 55.9 °F 53.0 °F 29.94 in Calm     90% 0.00 in WeatherDisplay:10.37 W/m2 CLR
03:39 56.0 °F 53.1 °F 29.94 in Calm     90% 0.00 in WeatherDisplay:10.37 W/m2 CLR
03:44 56.2 °F 53.3 °F 29.94 in Calm     90% 0.00 in WeatherDisplay:10.37 W/m2 CLR
03:49 56.3 °F 53.4 °F 29.94 in Calm     90% 0.00 in WeatherDisplay:10.37 W/m2 CLR
03:54 56.5 °F 53.6 °F 29.94 in Calm     90% 0.00 in WeatherDisplay:10.37 W/m2 CLR
03:59 56.6 °F 53.7 °F 29.94 in Calm     90% 0.00 in WeatherDisplay:10.37 W/m2 CLR
04:04 56.7 °F 53.8 °F 29.93 in Calm     90% 0.00 in WeatherDisplay:10.37 W/m2 CLR
04:09 57.0 °F 54.1 °F 29.93 in Calm     90% 0.00 in WeatherDisplay:10.37 W/m2 CLR
04:14 57.2 °F 54.3 °F 29.93 in Calm     90% 0.00 in WeatherDisplay:10.37 W/m2 CLR
04:19 57.3 °F 54.4 °F 29.93 in Calm     90% 0.00 in WeatherDisplay:10.37 W/m2 CLR
04:24 57.6 °F 54.7 °F 29.93 in Calm     90% 0.00 in WeatherDisplay:10.37 W/m2 CLR
04:29 58.0 °F 55.1 °F 29.93 in Calm     90% 0.00 in WeatherDisplay:10.37 W/m2 CLR
04:34 58.3 °F 55.4 °F 29.93 in Calm     90% 0.00 in WeatherDisplay:10.37 W/m2 CLR
04:39 58.3 °F 55.4 °F 29.92 in Calm     90% 0.00 in WeatherDisplay:10.37 W/m2 CLR
04:44 58.1 °F 55.2 °F 29.92 in Calm     90% 0.00 in WeatherDisplay:10.37 W/m2 CLR
04:49 58.0 °F 55.1 °F 29.93 in Calm     90% 0.00 in WeatherDisplay:10.37 W/m2 CLR
04:54 58.0 °F 55.1 °F 29.93 in ESE 1.2 mph 1.2 mph 90% 0.00 in WeatherDisplay:10.37 W/m2 CLR
04:59 58.0 °F 55.4 °F 29.93 in Calm     91% 0.00 in WeatherDisplay:10.37 W/m2 CLR
05:04 57.8 °F 55.2 °F 29.94 in Calm     91% 0.00 in WeatherDisplay:10.37 W/m2 CLR
05:09 58.0 °F 55.4 °F 29.94 in ESE 1.2 mph   91% 0.00 in WeatherDisplay:10.37 W/m2 CLR
05:14 58.0 °F 55.4 °F 29.94 in Calm     91% 0.00 in WeatherDisplay:10.37 W/m2 CLR
05:19 58.0 °F 55.4 °F 29.94 in Calm     91% 0.00 in WeatherDisplay:10.37 W/m2 CLR
05:24 58.0 °F 55.4 °F 29.94 in Calm     91% 0.00 in WeatherDisplay:10.37 W/m2 CLR
05:29 58.0 °F 55.7 °F 29.93 in Calm     92% 0.00 in WeatherDisplay:10.37 W/m2 CLR
05:34 58.0 °F 55.7 °F 29.93 in Calm     92% 0.00 in WeatherDisplay:10.37 W/m2 CLR
05:39 58.0 °F 55.7 °F 29.93 in Calm     92% 0.00 in WeatherDisplay:10.37 W/m2 CLR
05:44 58.0 °F 55.7 °F 29.93 in Calm     92% 0.00 in WeatherDisplay:10.37 W/m2 CLR
05:49 58.1 °F 55.8 °F 29.93 in ESE 1.2 mph 1.2 mph 92% 0.00 in WeatherDisplay:10.37 W/m2 CLR
05:54 58.1 °F 55.8 °F 29.93 in Calm     92% 0.00 in WeatherDisplay:10.37 W/m2 CLR
06:04 58.1 °F 55.8 °F 29.95 in Calm   0.1 mph 92% 0.00 in WeatherDisplay:10.37 W/m2 CLR
06:09 58.1 °F 55.8 °F 29.95 in Calm     92% 0.00 in WeatherDisplay:10.37 W/m2 CLR
06:14 58.1 °F 55.8 °F 29.95 in Calm     92% 0.00 in WeatherDisplay:10.37 W/m2 CLR
06:19 58.1 °F 55.8 °F 29.88 in Calm     92% 0.00 in WeatherDisplay:10.37 W/m2 CLR
06:24 58.1 °F 55.8 °F 29.89 in Calm     92% 0.00 in WeatherDisplay:10.37 W/m2 CLR
06:29 58.1 °F 55.8 °F 29.89 in Calm     92% 0.00 in WeatherDisplay:10.37 W/m2 CLR
06:34 58.1 °F 55.8 °F 29.89 in Calm     92% 0.00 in WeatherDisplay:10.37 W/m2 CLR
06:39 58.1 °F 55.8 °F 29.89 in Calm     92% 0.00 in WeatherDisplay:10.37 W/m2 CLR
06:44 58.1 °F 55.8 °F 29.89 in Calm     92% 0.00 in WeatherDisplay:10.37 W/m2 CLR
06:49 58.1 °F 55.8 °F 29.89 in Calm     92% 0.00 in WeatherDisplay:10.37 W/m2 CLR
06:54 58.1 °F 55.8 °F 29.90 in Calm     92% 0.00 in WeatherDisplay:10.37 W/m2 CLR
06:59 58.1 °F 55.8 °F 29.90 in Calm     92% 0.00 in WeatherDisplay:10.37 W/m2 CLR
07:04 58.1 °F 55.8 °F 29.93 in Calm     92% 0.00 in WeatherDisplay:10.37 W/m2 CLR
07:09 58.1 °F 55.8 °F 29.93 in Calm     92% 0.00 in WeatherDisplay:10.37 W/m2 CLR
07:14 58.1 °F 55.8 °F 29.93 in Calm     92% 0.00 in WeatherDisplay:10.37 W/m2 CLR
07:19 58.1 °F 55.8 °F 29.93 in Calm     92% 0.00 in WeatherDisplay:10.37 W/m2 CLR
07:24 57.5 °F 55.5 °F 29.98 in Calm     93% 0.00 in WeatherDisplay:10.37 W/m2 CLR
07:30 57.5 °F 55.5 °F 29.98 in ESE 2.3 mph   93% 0.00 in WeatherDisplay:10.37 W/m2 CLR
07:35 57.5 °F 55.5 °F 29.98 in ESE 1.0 mph   93% 0.00 in WeatherDisplay:10.37 W/m2 CLR
07:40 57.3 °F 55.3 °F 29.99 in Calm     93% 0.00 in WeatherDisplay:10.37 W/m2 CLR
07:45 57.5 °F 55.5 °F 29.98 in Calm     93% 0.00 in WeatherDisplay:10.37 W/m2 CLR
07:50 57.6 °F 55.6 °F 29.98 in Calm     93% 0.00 in WeatherDisplay:10.37 W/m2 CLR
07:55 57.6 °F 55.6 °F 29.98 in ESE 1.2 mph 1.2 mph 93% 0.00 in WeatherDisplay:10.37 W/m2 CLR
08:00 57.6 °F 55.6 °F 29.98 in Calm     93% 0.00 in WeatherDisplay:10.37 W/m2 CLR
08:05 57.8 °F 55.8 °F 29.99 in ESE 1.2 mph   93% 0.00 in WeatherDisplay:10.37 W/m2 CLR
08:10 58.0 °F 56.0 °F 30.00 in Calm     93% 0.00 in WeatherDisplay:10.37 W/m2 CLR
08:15 58.1 °F 56.1 °F 30.00 in Calm     93% 0.00 in WeatherDisplay:10.37 W/m2 CLR
08:20 58.3 °F 56.3 °F 29.99 in Calm     93% 0.00 in WeatherDisplay:10.37 W/m2 CLR
08:25 58.4 °F 56.4 °F 29.99 in Calm     93% 0.00 in WeatherDisplay:10.37 W/m2 CLR
08:30 58.4 °F 56.4 °F 29.99 in Calm     93% 0.00 in WeatherDisplay:10.37 W/m2 CLR
08:35 58.4 °F 56.4 °F 29.99 in Calm     93% 0.00 in WeatherDisplay:10.37 W/m2 CLR
08:40 58.4 °F 56.4 °F 29.99 in ESE 1.2 mph 1.2 mph 93% 0.00 in WeatherDisplay:10.37 W/m2 CLR
08:45 58.4 °F 56.4 °F 29.99 in ESE 2.0 mph 2.0 mph 93% 0.00 in WeatherDisplay:10.37 W/m2 CLR
08:50 58.6 °F 56.6 °F 29.99 in ESE 1.2 mph 1.2 mph 93% 0.00 in WeatherDisplay:10.37 W/m2 CLR
08:55 58.6 °F 56.3 °F 29.98 in ESE 2.3 mph 2.3 mph 92% 0.00 in WeatherDisplay:10.37 W/m2 CLR
09:00 58.7 °F 56.4 °F 29.98 in Calm     92% 0.00 in WeatherDisplay:10.37 W/m2 CLR
09:05 58.9 °F 56.6 °F 30.00 in ESE 3.5 mph 3.5 mph 92% 0.00 in WeatherDisplay:10.37 W/m2 CLR
09:10 59.3 °F 57.0 °F 29.99 in ESE 2.3 mph 2.3 mph 92% 0.00 in WeatherDisplay:10.37 W/m2 CLR
09:20 59.5 °F 56.9 °F 29.99 in NNE 3.5 mph 3.5 mph 91% 0.00 in WeatherDisplay:10.37 W/m2 CLR
09:25 59.9 °F 57.3 °F 30.00 in Calm     91% 0.00 in WeatherDisplay:10.37 W/m2 CLR
09:30 60.5 °F 57.6 °F 30.00 in Calm     90% 0.00 in WeatherDisplay:10.37 W/m2 CLR
09:35 60.9 °F 57.6 °F 29.99 in NNE 1.0 mph 1.0 mph 89% 0.00 in WeatherDisplay:10.37 W/m2 CLR
09:40 61.3 °F 58.0 °F 29.99 in NNE 2.3 mph 2.3 mph 89% 0.00 in WeatherDisplay:10.37 W/m2 CLR
09:45 61.5 °F 57.6 °F 29.99 in NNE 2.3 mph 2.3 mph 87% 0.00 in WeatherDisplay:10.37 W/m2 CLR
09:50 61.3 °F 57.1 °F 29.99 in NNW 3.5 mph 3.5 mph 86% 0.00 in WeatherDisplay:10.37 W/m2 CLR
09:55 61.8 °F 57.6 °F 29.99 in NE 1.2 mph 1.2 mph 86% 0.00 in WeatherDisplay:10.37 W/m2 CLR
10:00 62.6 °F 57.7 °F 29.98 in Calm     84% 0.00 in WeatherDisplay:10.37 W/m2 CLR
10:05 63.4 °F 57.8 °F 30.00 in NE 3.0 mph 3.0 mph 82% 0.00 in WeatherDisplay:10.37 W/m2 CLR
10:10 63.5 °F 56.9 °F 29.99 in East 4.6 mph 4.6 mph 79% 0.00 in WeatherDisplay:10.37 W/m2 CLR
10:15 64.0 °F 56.6 °F 29.99 in East 5.8 mph 5.8 mph 77% 0.00 in WeatherDisplay:10.37 W/m2 CLR
10:25 64.8 °F 56.3 °F 30.00 in East 5.8 mph 5.8 mph 74% 0.00 in WeatherDisplay:10.37 W/m2 CLR
10:30 64.7 °F 56.2 °F 30.00 in East 5.8 mph 5.8 mph 74% 0.00 in WeatherDisplay:10.37 W/m2 CLR
10:35 64.8 °F 55.9 °F 30.00 in East 5.8 mph 5.8 mph 73% 0.00 in WeatherDisplay:10.37 W/m2 CLR
10:40 64.8 °F 55.9 °F 30.00 in East 4.6 mph 4.6 mph 73% 0.00 in WeatherDisplay:10.37 W/m2 CLR
10:45 65.2 °F 56.7 °F 29.99 in East 3.5 mph 3.5 mph 74% 0.00 in WeatherDisplay:10.37 W/m2 CLR
10:50 65.6 °F 56.7 °F 29.98 in East 5.8 mph 5.8 mph 73% 0.00 in WeatherDisplay:10.37 W/m2 CLR
10:55 66.0 °F 56.3 °F 29.99 in East 4.0 mph 4.0 mph 71% 0.00 in WeatherDisplay:10.37 W/m2 CLR
11:00 66.6 °F 56.9 °F 29.98 in East 2.3 mph 2.3 mph 71% 0.00 in WeatherDisplay:10.37 W/m2 CLR
11:05 67.6 °F 57.1 °F 29.98 in Calm   1.9 mph 69% 0.00 in WeatherDisplay:10.37 W/m2 CLR
11:10 67.6 °F 56.2 °F 29.98 in East 3.5 mph 3.5 mph 67% 0.00 in WeatherDisplay:10.37 W/m2 CLR
11:15 67.8 °F 56.9 °F 29.98 in East 3.5 mph 3.5 mph 68% 0.00 in WeatherDisplay:10.37 W/m2 CLR
11:20 68.3 °F 56.1 °F 29.98 in ESE 4.6 mph 4.6 mph 65% 0.00 in WeatherDisplay:10.37 W/m2 CLR
11:26 68.6 °F 55.9 °F 29.98 in ESE 1.2 mph 1.2 mph 64% 0.00 in WeatherDisplay:10.37 W/m2 CLR
11:31 68.9 °F 56.2 °F 29.98 in ESE 3.5 mph 3.5 mph 64% 0.00 in WeatherDisplay:10.37 W/m2 CLR
11:36 68.9 °F 56.2 °F 29.97 in ESE 2.3 mph 2.3 mph 64% 0.00 in WeatherDisplay:10.37 W/m2 CLR
11:41 69.3 °F 56.6 °F 29.97 in Calm     64% 0.00 in WeatherDisplay:10.37 W/m2 CLR
11:46 69.6 °F 56.4 °F 29.96 in ESE 1.2 mph 1.2 mph 63% 0.00 in WeatherDisplay:10.37 W/m2 CLR
11:51 70.1 °F 55.6 °F 29.97 in ESE 6.0 mph 6.0 mph 60% 0.00 in WeatherDisplay:10.37 W/m2 CLR
11:56 69.9 °F 55.4 °F 29.97 in ESE 3.5 mph 3.5 mph 60% 0.00 in WeatherDisplay:10.37 W/m2 CLR
12:01 70.3 °F 56.2 °F 29.96 in ESE 1.2 mph   61% 0.00 in WeatherDisplay:10.37 W/m2 CLR
12:06 70.4 °F 55.8 °F 29.97 in ESE 6.9 mph 6.9 mph 60% 0.00 in WeatherDisplay:10.37 W/m2 CLR
12:11 70.9 °F 55.9 °F 29.95 in SE 9.2 mph 9.2 mph 59% 0.00 in WeatherDisplay:10.37 W/m2 CLR
12:16 71.5 °F 55.0 °F 29.96 in SSE 3.5 mph 3.5 mph 56% 0.00 in WeatherDisplay:10.37 W/m2 CLR
12:21 71.5 °F 55.9 °F 29.96 in SSE 5.0 mph 5.0 mph 58% 0.00 in WeatherDisplay:10.37 W/m2 CLR
12:26 71.3 °F 56.7 °F 29.95 in SSE 3.5 mph 3.5 mph 60% 0.00 in WeatherDisplay:10.37 W/m2 CLR
12:31 71.1 °F 55.1 °F 29.95 in SSE 5.8 mph 5.8 mph 57% 0.00 in WeatherDisplay:10.37 W/m2 CLR
12:36 71.3 °F 55.3 °F 29.95 in SSE 4.6 mph 4.6 mph 57% 0.00 in WeatherDisplay:10.37 W/m2 CLR
12:41 71.6 °F 55.6 °F 29.95 in ESE 4.0 mph 4.0 mph 57% 0.00 in WeatherDisplay:10.37 W/m2 CLR
12:46 72.1 °F 55.0 °F 29.95 in SE 3.5 mph 3.5 mph 55% 0.00 in WeatherDisplay:10.37 W/m2 CLR
12:52 72.1 °F 55.5 °F 29.95 in ESE 4.0 mph 4.0 mph 56% 0.00 in WeatherDisplay:10.37 W/m2 CLR
12:56 72.1 °F 55.5 °F 29.95 in East 5.8 mph 5.8 mph 56% 0.00 in WeatherDisplay:10.37 W/m2 CLR
13:02 72.8 °F 55.2 °F 29.95 in SSE 4.6 mph 4.6 mph 54% 0.00 in WeatherDisplay:10.37 W/m2 CLR
13:07 73.3 °F 56.2 °F 29.94 in SSE 1.2 mph 1.2 mph 55% 0.00 in WeatherDisplay:10.37 W/m2 CLR
13:12 73.9 °F 55.2 °F 29.94 in ESE 4.6 mph 4.6 mph 52% 0.00 in WeatherDisplay:10.37 W/m2 CLR
13:17 73.9 °F 55.2 °F 29.93 in ESE 1.2 mph 1.2 mph 52% 0.00 in WeatherDisplay:10.37 W/m2 CLR
13:22 74.0 °F 54.7 °F 29.93 in SSE 4.6 mph 4.6 mph 51% 0.00 in WeatherDisplay:10.37 W/m2 CLR
13:27 74.2 °F 54.4 °F 29.93 in East 6.9 mph 6.9 mph 50% 0.00 in WeatherDisplay:10.37 W/m2 CLR
13:32 73.9 °F 55.2 °F 29.93 in SE 5.8 mph 5.8 mph 52% 0.00 in WeatherDisplay:10.37 W/m2 CLR
13:37 73.5 °F 54.3 °F 29.92 in SE 9.2 mph 9.2 mph 51% 0.00 in WeatherDisplay:10.37 W/m2 CLR
13:42 73.5 °F 55.3 °F 29.93 in SE 1.2 mph 1.2 mph 53% 0.00 in WeatherDisplay:10.37 W/m2 CLR
13:47 73.9 °F 54.1 °F 29.92 in SE 4.6 mph 4.6 mph 50% 0.00 in WeatherDisplay:10.37 W/m2 CLR
13:52 74.4 °F 54.5 °F 29.92 in SE 1.2 mph 1.2 mph 50% 0.00 in WeatherDisplay:10.37 W/m2 CLR
13:57 74.6 °F 54.2 °F 29.92 in ESE 4.6 mph 4.6 mph 49% 0.00 in WeatherDisplay:10.37 W/m2 CLR
14:02 74.4 °F 55.6 °F 29.93 in East 3.0 mph 3.0 mph 52% 0.00 in WeatherDisplay:10.37 W/m2 CLR
14:07 74.2 °F 54.4 °F 29.93 in East 4.6 mph 4.6 mph 50% 0.00 in WeatherDisplay:10.37 W/m2 CLR
14:12 74.7 °F 53.1 °F 29.92 in SE 4.6 mph 4.6 mph 47% 0.00 in WeatherDisplay:10.37 W/m2 CLR
14:17 74.9 °F 54.4 °F 29.92 in East 5.8 mph 5.8 mph 49% 0.00 in WeatherDisplay:10.37 W/m2 CLR
14:22 75.3 °F 53.1 °F 29.91 in East 8.1 mph 8.1 mph 46% 0.00 in WeatherDisplay:10.37 W/m2 CLR
14:27 75.3 °F 53.7 °F 29.91 in East 9.2 mph 9.2 mph 47% 0.00 in WeatherDisplay:10.37 W/m2 CLR
14:32 74.7 °F 52.5 °F 29.90 in East 10.4 mph 10.4 mph 46% 0.00 in WeatherDisplay:10.37 W/m2 CLR
14:37 75.1 °F 53.5 °F 29.90 in East 4.0 mph 4.8 mph 47% 0.00 in WeatherDisplay:10.37 W/m2 CLR
14:42 75.3 °F 54.3 °F 29.90 in East 3.5 mph 3.5 mph 48% 0.00 in WeatherDisplay:10.37 W/m2 CLR
14:47 75.8 °F 54.1 °F 29.90 in East 5.0 mph 5.0 mph 47% 0.00 in WeatherDisplay:10.37 W/m2 CLR
14:52 75.8 °F 52.9 °F 29.90 in SE 6.9 mph 6.9 mph 45% 0.00 in WeatherDisplay:10.37 W/m2 CLR
14:57 75.6 °F 53.4 °F 29.90 in East 6.0 mph 6.0 mph 46% 0.00 in WeatherDisplay:10.37 W/m2 CLR
15:02 76.0 °F 52.5 °F 29.89 in East 3.5 mph 3.5 mph 44% 0.00 in WeatherDisplay:10.37 W/m2 CLR
15:07 76.0 °F 52.5 °F 29.89 in SE 4.6 mph 4.6 mph 44% 0.00 in WeatherDisplay:10.37 W/m2 CLR
15:12 76.1 °F 52.6 °F 29.88 in SE 3.5 mph 3.5 mph 44% 0.00 in WeatherDisplay:10.37 W/m2 CLR
15:17 76.7 °F 51.9 °F 29.87 in ESE 5.8 mph 5.8 mph 42% 0.00 in WeatherDisplay:10.37 W/m2 CLR
15:22 77.0 °F 53.4 °F 29.87 in ESE 3.5 mph 3.5 mph 44% 0.00 in WeatherDisplay:10.37 W/m2 CLR
15:27 76.8 °F 53.2 °F 29.86 in ESE 5.0 mph 5.0 mph 44% 0.00 in WeatherDisplay:10.37 W/m2 CLR
15:32 76.8 °F 53.8 °F 29.86 in East 5.0 mph 5.0 mph 45% 0.00 in WeatherDisplay:10.37 W/m2 CLR
15:37 76.7 °F 53.1 °F 29.86 in East 11.5 mph 11.5 mph 44% 0.00 in WeatherDisplay:10.37 W/m2 CLR
15:42 76.3 °F 53.4 °F 29.87 in East 4.6 mph 4.6 mph 45% 0.00 in WeatherDisplay:10.37 W/m2 CLR
15:47 76.3 °F 52.8 °F 29.87 in East 5.8 mph 5.8 mph 44% 0.00 in WeatherDisplay:10.37 W/m2 CLR
15:52 76.1 °F 53.2 °F 29.87 in East 5.8 mph 5.8 mph 45% 0.00 in WeatherDisplay:10.37 W/m2 CLR
15:57 76.5 °F 52.3 °F 29.86 in East 3.0 mph 3.6 mph 43% 0.00 in WeatherDisplay:10.37 W/m2 CLR
16:02 76.5 °F 52.3 °F 29.86 in East 6.0 mph 6.0 mph 43% 0.00 in WeatherDisplay:10.37 W/m2 CLR
16:07 76.5 °F 51.7 °F 29.86 in East 5.8 mph 5.8 mph 42% 0.00 in WeatherDisplay:10.37 W/m2 CLR
16:12 76.7 °F 51.9 °F 29.86 in East 1.2 mph   42% 0.00 in WeatherDisplay:10.37 W/m2 CLR
16:17 76.7 °F 53.8 °F 29.85 in East 1.2 mph   45% 0.00 in WeatherDisplay:10.37 W/m2 CLR
16:22 77.0 °F 51.5 °F 29.85 in SE 3.5 mph 3.5 mph 41% 0.00 in WeatherDisplay:10.37 W/m2 CLR
16:27 77.2 °F 52.3 °F 29.85 in SE 3.5 mph 3.5 mph 42% 0.00 in WeatherDisplay:10.37 W/m2 CLR
16:32 77.4 °F 53.8 °F 29.85 in SE 3.5 mph 3.5 mph 44% 0.00 in WeatherDisplay:10.37 W/m2 CLR
16:37 77.0 °F 54.0 °F 29.85 in NNW 4.6 mph 4.6 mph 45% 0.00 in WeatherDisplay:10.37 W/m2 CLR
16:42 76.8 °F 53.2 °F 29.85 in ENE 1.2 mph 1.2 mph 44% 0.00 in WeatherDisplay:10.37 W/m2 CLR
16:48 76.8 °F 52.0 °F 29.85 in East 3.5 mph 3.5 mph 42% 0.00 in WeatherDisplay:10.37 W/m2 CLR
16:52 76.7 °F 53.8 °F 29.85 in East 3.5 mph 3.5 mph 45% 0.00 in WeatherDisplay:10.37 W/m2 CLR
16:57 76.7 °F 52.5 °F 29.85 in East 3.5 mph 3.5 mph 43% 0.00 in WeatherDisplay:10.37 W/m2 CLR
17:03 76.5 °F 53.0 °F 29.85 in East 4.0 mph 4.0 mph 44% 0.00 in WeatherDisplay:10.37 W/m2 CLR
17:08 76.5 °F 53.0 °F 29.85 in East 4.6 mph 4.6 mph 44% 0.00 in WeatherDisplay:10.37 W/m2 CLR
17:13 76.5 °F 54.2 °F 29.85 in East 1.2 mph 1.2 mph 46% 0.00 in WeatherDisplay:10.37 W/m2 CLR
17:18 76.3 °F 52.8 °F 29.85 in East 6.9 mph 6.9 mph 44% 0.00 in WeatherDisplay:10.37 W/m2 CLR
17:23 76.5 °F 51.7 °F 29.86 in East 3.5 mph 3.5 mph 42% 0.00 in WeatherDisplay:10.37 W/m2 CLR
17:28 76.7 °F 52.5 °F 29.86 in East 5.0 mph 5.0 mph 43% 0.00 in WeatherDisplay:10.37 W/m2 CLR
17:33 76.5 °F 51.7 °F 29.86 in East 4.6 mph 4.6 mph 42% 0.00 in WeatherDisplay:10.37 W/m2 CLR
17:38 76.5 °F 51.7 °F 29.86 in East 5.8 mph 5.8 mph 42% 0.00 in WeatherDisplay:10.37 W/m2 CLR
17:43 76.5 °F 51.7 °F 29.86 in East 8.0 mph 8.0 mph 42% 0.00 in WeatherDisplay:10.37 W/m2 CLR
17:48 76.3 °F 51.5 °F 29.87 in East 4.6 mph 4.6 mph 42% 0.00 in WeatherDisplay:10.37 W/m2 CLR
17:53 76.3 °F 51.5 °F 29.87 in East 3.5 mph 3.5 mph 42% 0.00 in WeatherDisplay:10.37 W/m2 CLR
17:58 76.5 °F 50.4 °F 29.87 in SE 4.6 mph 4.6 mph 40% 0.00 in WeatherDisplay:10.37 W/m2 CLR
18:03 76.5 °F 50.4 °F 29.77 in SE 2.3 mph 2.3 mph 40% 0.00 in WeatherDisplay:10.37 W/m2 CLR
18:08 76.5 °F 50.4 °F 29.78 in ESE 3.5 mph 3.5 mph 40% 0.00 in WeatherDisplay:10.37 W/m2 CLR
18:13 76.5 °F 51.0 °F 29.78 in ESE 3.5 mph   41% 0.00 in WeatherDisplay:10.37 W/m2 CLR
18:18 76.3 °F 50.9 °F 29.79 in ESE 2.3 mph 2.3 mph 41% 0.00 in WeatherDisplay:10.37 W/m2 CLR
18:23 76.1 °F 50.0 °F 29.79 in ESE 3.5 mph 3.5 mph 40% 0.00 in WeatherDisplay:10.37 W/m2 CLR
18:28 76.0 °F 50.6 °F 29.79 in ESE 2.3 mph 2.3 mph 41% 0.00 in WeatherDisplay:10.37 W/m2 CLR
18:33 75.8 °F 50.4 °F 29.79 in ESE 3.5 mph 3.5 mph 41% 0.00 in WeatherDisplay:10.37 W/m2 CLR
18:43 75.4 °F 50.7 °F 29.80 in ESE 2.3 mph 2.3 mph 42% 0.00 in WeatherDisplay:10.37 W/m2 CLR
18:48 75.3 °F 51.3 °F 29.80 in ESE 1.2 mph   43% 0.00 in WeatherDisplay:10.37 W/m2 CLR
18:53 75.1 °F 50.4 °F 29.80 in ESE 2.3 mph 2.3 mph 42% 0.00 in WeatherDisplay:10.37 W/m2 CLR
18:58 74.9 °F 51.5 °F 29.80 in Calm     44% 0.00 in WeatherDisplay:10.37 W/m2 CLR
19:03 74.6 °F 51.2 °F 29.88 in Calm     44% 0.00 in WeatherDisplay:10.37 W/m2 CLR
19:08 74.4 °F 51.1 °F 29.88 in Calm     44% 0.00 in WeatherDisplay:10.37 W/m2 CLR
19:13 74.0 °F 51.3 °F 29.88 in Calm     45% 0.00 in WeatherDisplay:10.37 W/m2 CLR
19:18 73.5 °F 50.9 °F 29.88 in Calm     45% 0.00 in WeatherDisplay:10.37 W/m2 CLR
19:28 72.8 °F 51.4 °F 29.89 in Calm     47% 0.00 in WeatherDisplay:10.37 W/m2 CLR
19:33 72.5 °F 51.1 °F 29.89 in Calm     47% 0.00 in WeatherDisplay:10.37 W/m2 CLR
19:38 72.1 °F 51.3 °F 29.89 in ESE 1.2 mph   48% 0.00 in WeatherDisplay:10.37 W/m2 CLR
19:43 71.8 °F 51.0 °F 29.89 in ESE 1.2 mph 1.2 mph 48% 0.00 in WeatherDisplay:10.37 W/m2 CLR
19:48 71.5 °F 52.4 °F 29.89 in ESE 4.6 mph 4.6 mph 51% 0.00 in WeatherDisplay:10.37 W/m2 CLR
19:53 71.6 °F 53.6 °F 29.89 in ESE 3.5 mph 3.5 mph 53% 0.00 in WeatherDisplay:10.37 W/m2 CLR
19:58 71.6 °F 55.1 °F 29.89 in ESE 3.5 mph 3.5 mph 56% 0.00 in WeatherDisplay:10.37 W/m2 CLR
20:03 71.5 °F 55.9 °F 29.89 in ESE 3.5 mph 3.5 mph 58% 0.00 in WeatherDisplay:10.37 W/m2 CLR
20:08 71.1 °F 56.0 °F 29.90 in ESE 4.0 mph 4.0 mph 59% 0.00 in WeatherDisplay:10.37 W/m2 CLR
20:13 70.9 °F 56.3 °F 29.90 in ESE 4.6 mph 4.6 mph 60% 0.00 in WeatherDisplay:10.37 W/m2 CLR
20:18 70.6 °F 56.5 °F 29.90 in ESE 3.5 mph 3.5 mph 61% 0.00 in WeatherDisplay:10.37 W/m2 CLR
20:23 70.3 °F 56.7 °F 29.91 in ESE 4.6 mph 4.6 mph 62% 0.00 in WeatherDisplay:10.37 W/m2 CLR
20:28 69.9 °F 56.7 °F 29.91 in ESE 6.0 mph 6.0 mph 63% 0.00 in WeatherDisplay:10.37 W/m2 CLR
20:33 69.8 °F 56.6 °F 29.91 in ESE 4.6 mph 4.6 mph 63% 0.00 in WeatherDisplay:10.37 W/m2 CLR
20:38 69.4 °F 56.7 °F 29.91 in SE 4.6 mph 4.6 mph 64% 0.00 in WeatherDisplay:10.37 W/m2 CLR
20:43 69.1 °F 56.4 °F 29.92 in ESE 5.8 mph 5.8 mph 64% 0.00 in WeatherDisplay:10.37 W/m2 CLR
20:48 68.9 °F 55.8 °F 29.92 in SE 6.9 mph 6.9 mph 63% 0.00 in WeatherDisplay:10.37 W/m2 CLR
20:53 68.6 °F 55.5 °F 29.93 in East 6.0 mph 6.0 mph 63% 0.00 in WeatherDisplay:10.37 W/m2 CLR
20:58 68.4 °F 55.7 °F 29.93 in ESE 6.9 mph 6.9 mph 64% 0.00 in WeatherDisplay:10.37 W/m2 CLR
21:03 68.1 °F 55.5 °F 29.92 in East 5.8 mph 5.8 mph 64% 0.00 in WeatherDisplay:10.37 W/m2 CLR
21:08 67.8 °F 55.2 °F 29.92 in SE 4.6 mph 4.6 mph 64% 0.00 in WeatherDisplay:10.37 W/m2 CLR
21:13 67.4 °F 54.8 °F 29.92 in SE 3.5 mph 3.6 mph 64% 0.00 in WeatherDisplay:10.37 W/m2 CLR
21:18 67.3 °F 55.1 °F 29.92 in SE 7.0 mph 7.0 mph 65% 0.00 in WeatherDisplay:10.37 W/m2 CLR
21:23 66.9 °F 55.2 °F 29.93 in SE 5.0 mph 5.0 mph 66% 0.00 in WeatherDisplay:10.37 W/m2 CLR
21:28 66.8 °F 55.5 °F 29.93 in ESE 4.6 mph 4.6 mph 67% 0.00 in WeatherDisplay:10.37 W/m2 CLR
21:33 66.6 °F 55.3 °F 29.93 in East 6.9 mph 6.9 mph 67% 0.00 in WeatherDisplay:10.37 W/m2 CLR
21:38 66.6 °F 55.3 °F 29.93 in ESE 4.0 mph 4.0 mph 67% 0.00 in WeatherDisplay:10.37 W/m2 CLR
21:43 66.6 °F 55.3 °F 29.94 in ESE 3.5 mph 3.5 mph 67% 0.00 in WeatherDisplay:10.37 W/m2 CLR
21:48 66.6 °F 55.7 °F 29.93 in ESE 6.9 mph 6.9 mph 68% 0.00 in WeatherDisplay:10.37 W/m2 CLR
21:53 66.4 °F 55.9 °F 29.94 in ESE 5.8 mph 5.8 mph 69% 0.00 in WeatherDisplay:10.37 W/m2 CLR
21:58 66.3 °F 55.8 °F 29.94 in ESE 7.0 mph 7.0 mph 69% 0.00 in WeatherDisplay:10.37 W/m2 CLR
22:03 66.0 °F 55.9 °F 29.92 in East 9.2 mph 9.2 mph 70% 0.00 in WeatherDisplay:10.37 W/m2 CLR
22:08 65.6 °F 55.9 °F 29.92 in ESE 5.8 mph 5.8 mph 71% 0.00 in WeatherDisplay:10.37 W/m2 CLR
22:13 65.3 °F 56.0 °F 29.92 in ESE 10.4 mph 10.4 mph 72% 0.00 in WeatherDisplay:10.37 W/m2 CLR
22:18 64.8 °F 55.9 °F 29.92 in ESE 6.0 mph 6.0 mph 73% 0.00 in WeatherDisplay:10.37 W/m2 CLR
22:23 64.5 °F 56.0 °F 29.92 in ESE 6.9 mph 6.9 mph 74% 0.00 in WeatherDisplay:10.37 W/m2 CLR
22:28 64.3 °F 55.8 °F 29.93 in ESE 5.0 mph 5.0 mph 74% 0.00 in WeatherDisplay:10.37 W/m2 CLR
22:33 64.0 °F 55.5 °F 29.93 in ESE 4.6 mph 4.6 mph 74% 0.00 in WeatherDisplay:10.37 W/m2 CLR
22:38 63.9 °F 55.8 °F 29.93 in East 6.0 mph 6.0 mph 75% 0.00 in WeatherDisplay:10.37 W/m2 CLR
22:43 63.5 °F 55.4 °F 29.93 in ESE 5.8 mph 5.8 mph 75% 0.00 in WeatherDisplay:10.37 W/m2 CLR
22:48 63.4 °F 55.3 °F 29.94 in ESE 5.8 mph 5.8 mph 75% 0.00 in WeatherDisplay:10.37 W/m2 CLR
22:53 63.2 °F 55.1 °F 29.94 in ESE 6.0 mph 6.0 mph 75% 0.00 in WeatherDisplay:10.37 W/m2 CLR
22:58 63.1 °F 56.8 °F 29.93 in ESE 4.6 mph 4.6 mph 80% 0.00 in WeatherDisplay:10.37 W/m2 CLR
23:03 62.9 °F 55.2 °F 29.93 in ESE 3.5 mph 3.5 mph 76% 0.00 in WeatherDisplay:10.37 W/m2 CLR
23:08 62.7 °F 55.0 °F 29.92 in ESE 1.2 mph 1.2 mph 76% 0.00 in WeatherDisplay:10.37 W/m2 CLR
23:13 62.4 °F 54.7 °F 29.93 in Calm     76% 0.00 in WeatherDisplay:10.37 W/m2 CLR
23:19 62.3 °F 55.0 °F 29.93 in Calm     77% 0.00 in WeatherDisplay:10.37 W/m2 CLR
23:24 62.3 °F 55.0 °F 29.93 in Calm     77% 0.00 in WeatherDisplay:10.37 W/m2 CLR
23:29 62.1 °F 55.2 °F 29.93 in Calm     78% 0.00 in WeatherDisplay:10.37 W/m2 CLR
23:34 62.1 °F 55.2 °F 29.93 in Calm     78% 0.00 in WeatherDisplay:10.37 W/m2 CLR
Windsor Co Weather
Compliments of Weather Underground - 2.75 mb